Ana Sayfa
METAR-TAF:

METAR-TAF

Havaalanları :

Gillespie County Airport

Fredericksburg, Teksas, Amerika Birleşik Devletleri

Enlem: 30-14-37N, Boylam: 098-54-34W, yükseklik: 517 m

Güncel hava durumu gözlemi

Rapor saat 04:35 UTC de 29 dakika önce yapıldı.
Rüzgar güneydan 8 kt ve 14 kt'a kadar ani rüzgarlar
Sıcaklık 26°C
Nem 74%
Basınç 1013 hPa
Görüş mesafesi: 16.1 km
2300 ft yükseklikte parçalı çok bulutlu

METAR: KT82 160435Z AUTO 17008G14KT 10SM BKN023 26/21 A2991 RMK AO2 T02560209

Saat: 00:04 (05:04 UTC)


TAF: eksik

4.000'den fazla havaalanı için hava durumu gözlemleri ve tahminleri (METAR ve TAF raporları).

Kullanılabilir istasyonlar harita üzerinde sarı ve kırmızı noktalarla gösterilir.

İstasyonun adını görmek için fareyi noktanın üzerinde gezdirin.

Sonrasında hava gözlem ve tahminlerini görmek için tıklayın.

Haritayı değiştirmek için: yaklaştırmak için siyah artı işaretli yeşil düğmeye ve uzaklaştırmak için de eksi işaretli düğmeye hızla tıklayın; bitişik haritalar için yeşil okları kullanın.


METAR-TAF: